createdAt,value
2023-05-19T00:01:00.605Z,9.18
2023-05-19T00:02:06.179Z,6.35
2023-05-19T00:03:09.326Z,18.73
2023-05-19T00:04:15.531Z,6.72
2023-05-19T00:05:18.767Z,8.27
2023-05-19T00:06:25.524Z,10.88
2023-05-19T00:07:31.166Z,8.73
2023-05-19T00:08:34.764Z,8.65
2023-05-19T00:09:37.915Z,7.32
2023-05-19T00:10:40.612Z,9.57
2023-05-19T00:12:01.480Z,8.40
2023-05-19T00:13:04.324Z,11.00
2023-05-19T00:14:15.749Z,7.50
2023-05-19T00:15:18.702Z,10.10
2023-05-19T00:16:25.334Z,8.65
2023-05-19T00:17:30.504Z,6.30
2023-05-19T00:18:33.603Z,9.70
2023-05-19T00:19:35.990Z,9.25
2023-05-19T00:20:39.112Z,6.70
2023-05-19T00:21:45.115Z,7.10
2023-05-19T00:22:47.587Z,6.70
2023-05-19T00:23:50.038Z,6.65
2023-05-19T00:24:52.489Z,6.07
2023-05-19T00:25:54.867Z,6.97
2023-05-19T00:26:58.324Z,5.97
2023-05-19T00:28:00.889Z,6.53
2023-05-19T00:29:03.361Z,5.93
2023-05-19T00:30:06.577Z,10.95
2023-05-19T00:31:11.736Z,6.43
2023-05-19T00:32:14.731Z,5.47
2023-05-19T00:33:17.234Z,7.43
2023-05-19T00:34:22.498Z,6.63
2023-05-19T00:35:25.143Z,8.73
2023-05-19T00:36:27.440Z,8.00
2023-05-19T00:38:34.994Z,6.05
2023-05-19T00:39:37.401Z,6.40
2023-05-19T00:40:39.778Z,6.20
2023-05-19T00:41:42.188Z,7.43
2023-05-19T00:42:45.129Z,7.35
2023-05-19T00:43:47.451Z,8.63
2023-05-19T00:44:49.771Z,6.40
2023-05-19T00:45:52.389Z,9.93
2023-05-19T00:46:54.862Z,6.82
2023-05-19T00:47:57.470Z,6.72
2023-05-19T00:49:00.150Z,10.18
2023-05-19T00:50:02.484Z,5.47
2023-05-19T00:51:06.754Z,7.20
2023-05-19T00:52:09.435Z,7.68
2023-05-19T00:53:13.039Z,5.78
2023-05-19T00:54:18.231Z,5.43
2023-05-19T00:55:38.587Z,4.88
2023-05-19T00:57:13.583Z,6.18
2023-05-19T00:58:16.701Z,6.30
2023-05-19T00:59:19.098Z,4.72
2023-05-19T01:00:24.966Z,4.32
2023-05-19T01:01:28.112Z,7.20
2023-05-19T01:02:30.489Z,4.78
2023-05-19T01:03:37.250Z,4.72
2023-05-19T01:04:42.065Z,11.20
2023-05-19T01:05:47.851Z,5.35
2023-05-19T01:06:55.324Z,5.00
2023-05-19T01:07:57.754Z,4.20
2023-05-19T01:09:00.505Z,5.00
2023-05-19T01:10:04.507Z,6.00
2023-05-19T01:11:08.138Z,6.95
2023-05-19T01:12:10.803Z,7.45
2023-05-19T01:13:13.176Z,4.78
2023-05-19T01:14:15.715Z,6.25
2023-05-19T01:15:18.119Z,6.00
2023-05-19T01:16:37.215Z,4.57
2023-05-19T01:17:50.867Z,4.32
2023-05-19T01:19:11.394Z,6.28
2023-05-19T01:20:26.554Z,5.85
2023-05-19T01:21:52.398Z,4.90
2023-05-19T01:23:19.998Z,4.68
2023-05-19T01:24:58.184Z,7.07
2023-05-19T01:26:31.328Z,4.53
2023-05-19T01:27:58.202Z,7.40
2023-05-19T01:29:09.015Z,5.75
2023-05-19T01:30:30.943Z,5.07
2023-05-19T01:31:34.163Z,5.93
2023-05-19T01:33:00.454Z,5.85
2023-05-19T01:34:04.903Z,7.18
2023-05-19T01:35:08.923Z,4.63
2023-05-19T01:36:12.428Z,13.82
2023-05-19T01:37:16.808Z,5.03
2023-05-19T01:38:20.781Z,5.55
2023-05-19T01:40:29.940Z,6.00
2023-05-19T01:42:40.064Z,5.55
2023-05-19T01:43:42.728Z,6.85
2023-05-19T01:44:45.663Z,12.85
2023-05-19T01:45:48.363Z,6.00
2023-05-19T01:46:51.243Z,5.35
2023-05-19T01:47:56.197Z,6.07
2023-05-19T01:48:58.997Z,6.75
2023-05-19T01:50:01.352Z,5.93
2023-05-19T01:51:04.228Z,6.57
2023-05-19T01:52:07.670Z,7.20
2023-05-19T01:53:10.396Z,5.88
2023-05-19T01:54:12.959Z,7.22
2023-05-19T01:55:15.390Z,7.45
2023-05-19T01:56:22.651Z,8.23
2023-05-19T01:57:34.321Z,6.25
2023-05-19T01:58:45.484Z,7.70
2023-05-19T01:59:54.276Z,6.63
2023-05-19T02:01:11.519Z,5.63
2023-05-19T02:02:40.837Z,5.45
2023-05-19T02:04:07.057Z,5.90
2023-05-19T02:05:19.191Z,8.05
2023-05-19T02:07:29.453Z,5.53
2023-05-19T02:08:41.804Z,5.30
2023-05-19T02:09:54.518Z,6.53
2023-05-19T02:11:22.964Z,5.20
2023-05-19T02:12:34.421Z,6.40
2023-05-19T02:13:39.720Z,5.60
2023-05-19T02:15:02.537Z,6.00
2023-05-19T02:16:06.156Z,7.05
2023-05-19T02:17:09.113Z,6.05
2023-05-19T02:18:15.284Z,6.68
2023-05-19T02:19:29.718Z,8.48
2023-05-19T02:20:32.358Z,9.25
2023-05-19T02:21:34.941Z,13.20
2023-05-19T02:22:55.623Z,16.60
2023-05-19T02:23:58.067Z,18.60
2023-05-19T02:25:00.711Z,17.13
2023-05-19T02:26:03.130Z,14.95
2023-05-19T02:27:06.024Z,11.27
2023-05-19T02:29:12.436Z,11.38
2023-05-19T02:30:14.962Z,9.05
2023-05-19T02:31:17.512Z,12.73
2023-05-19T02:32:20.977Z,11.82
2023-05-19T02:33:26.256Z,8.05
2023-05-19T02:34:29.162Z,9.57
2023-05-19T02:35:31.419Z,10.10
2023-05-19T02:36:35.402Z,8.70
2023-05-19T02:38:39.969Z,6.78
2023-05-19T02:39:42.917Z,8.13
2023-05-19T02:40:45.272Z,8.25
2023-05-19T02:42:06.317Z,9.45
2023-05-19T02:43:08.680Z,10.15
2023-05-19T02:44:10.982Z,11.25
2023-05-19T02:45:13.449Z,9.98
2023-05-19T02:46:16.784Z,12.80
2023-05-19T02:47:19.203Z,9.15
2023-05-19T02:48:21.607Z,10.48
2023-05-19T02:49:24.061Z,8.30
2023-05-19T02:50:26.509Z,7.90
2023-05-19T02:51:29.548Z,8.48
2023-05-19T02:52:32.069Z,7.95
2023-05-19T02:53:34.452Z,8.75
2023-05-19T02:54:36.921Z,7.57
2023-05-19T02:55:39.424Z,8.05
2023-05-19T02:56:41.887Z,6.30
2023-05-19T02:57:45.036Z,7.05
2023-05-19T02:58:47.578Z,6.68
2023-05-19T02:59:49.935Z,8.55
2023-05-19T03:00:52.515Z,7.68
2023-05-19T03:02:03.477Z,9.25
2023-05-19T03:03:05.937Z,7.70
2023-05-19T03:04:08.476Z,7.63
2023-05-19T03:05:10.783Z,10.20
2023-05-19T03:06:14.431Z,7.93
2023-05-19T03:07:16.940Z,9.85
2023-05-19T03:08:20.021Z,7.50
2023-05-19T03:09:22.470Z,13.38
2023-05-19T03:10:26.516Z,10.20
2023-05-19T03:11:29.812Z,7.95
2023-05-19T03:12:32.686Z,7.10
2023-05-19T03:13:35.155Z,7.55
2023-05-19T03:14:38.790Z,10.55
2023-05-19T03:15:42.744Z,6.82
2023-05-19T03:16:45.649Z,7.45
2023-05-19T03:17:48.507Z,10.23
2023-05-19T03:20:09.239Z,8.48
2023-05-19T03:21:11.776Z,7.93
2023-05-19T03:22:14.343Z,7.93
2023-05-19T03:23:16.643Z,7.68
2023-05-19T03:24:18.916Z,6.03
2023-05-19T03:25:21.416Z,7.60
2023-05-19T03:26:24.698Z,6.35
2023-05-19T03:27:27.008Z,7.72
2023-05-19T03:28:30.314Z,7.82
2023-05-19T03:29:32.713Z,7.38
2023-05-19T03:30:35.285Z,6.18
2023-05-19T03:31:50.098Z,6.40
2023-05-19T03:32:52.969Z,8.68
2023-05-19T03:33:55.611Z,7.35
2023-05-19T03:34:58.065Z,6.03
2023-05-19T03:36:03.437Z,7.15
2023-05-19T03:37:11.066Z,10.70
2023-05-19T03:38:15.360Z,7.38
2023-05-19T03:39:25.047Z,6.97
2023-05-19T03:40:28.063Z,6.63
2023-05-19T03:41:37.510Z,7.30
2023-05-19T03:42:39.918Z,6.53
2023-05-19T03:43:42.388Z,9.68
2023-05-19T03:44:45.888Z,9.48
2023-05-19T03:45:48.713Z,7.82
2023-05-19T03:47:09.919Z,14.75
2023-05-19T03:48:41.579Z,8.02
2023-05-19T03:49:56.299Z,11.32
2023-05-19T03:51:31.175Z,8.23
2023-05-19T03:53:07.423Z,7.60
2023-05-19T03:54:16.072Z,7.05
2023-05-19T03:55:20.428Z,8.52
2023-05-19T03:56:26.392Z,10.02
2023-05-19T03:57:32.425Z,10.32
2023-05-19T03:58:34.714Z,10.30
2023-05-19T03:59:37.711Z,9.43
2023-05-19T04:00:39.956Z,10.40
2023-05-19T04:01:42.390Z,11.90
2023-05-19T04:02:47.967Z,13.43
2023-05-19T04:03:53.125Z,12.20
2023-05-19T04:04:56.258Z,9.60
2023-05-19T04:06:42.552Z,12.65
2023-05-19T04:07:46.949Z,17.10
2023-05-19T04:08:49.323Z,16.27
2023-05-19T04:11:40.707Z,15.65
2023-05-19T04:13:06.683Z,15.25
2023-05-19T04:14:41.836Z,13.90
2023-05-19T04:15:45.843Z,13.82
2023-05-19T04:16:48.313Z,14.20
2023-05-19T04:17:53.490Z,12.68
2023-05-19T04:18:57.119Z,14.88
2023-05-19T04:20:00.254Z,10.50
2023-05-19T04:21:04.455Z,12.18
2023-05-19T04:22:06.927Z,10.98
2023-05-19T04:23:09.643Z,9.90
2023-05-19T04:25:17.428Z,6.95
2023-05-19T04:26:21.880Z,9.02
2023-05-19T04:27:24.482Z,7.28
2023-05-19T04:28:27.094Z,6.82
2023-05-19T04:29:29.740Z,6.78
2023-05-19T04:30:32.805Z,6.78
2023-05-19T04:31:36.736Z,6.65
2023-05-19T04:32:41.625Z,7.90
2023-05-19T04:33:44.093Z,6.30
2023-05-19T04:34:46.597Z,5.00
2023-05-19T04:35:55.133Z,5.45
2023-05-19T04:36:57.625Z,9.02
2023-05-19T04:38:00.225Z,19.67
2023-05-19T04:39:08.857Z,16.83
2023-05-19T04:40:12.861Z,10.13
2023-05-19T04:41:16.701Z,11.88
2023-05-19T04:42:19.648Z,10.38
2023-05-19T04:43:22.581Z,6.10
2023-05-19T04:44:28.754Z,5.43
2023-05-19T04:45:33.351Z,6.40
2023-05-19T04:46:38.535Z,4.57
2023-05-19T04:47:47.076Z,4.03
2023-05-19T04:48:50.951Z,7.65
2023-05-19T04:49:55.803Z,5.25
2023-05-19T04:50:58.766Z,5.18
2023-05-19T04:52:01.576Z,4.78
2023-05-19T04:53:07.873Z,4.97
2023-05-19T04:54:10.539Z,4.25
2023-05-19T04:55:13.422Z,4.00
2023-05-19T04:56:16.510Z,5.00
2023-05-19T04:57:21.852Z,4.30
2023-05-19T04:58:26.172Z,5.15
2023-05-19T04:59:29.147Z,5.32
2023-05-19T05:00:32.109Z,6.97
2023-05-19T05:01:46.782Z,4.22
2023-05-19T05:02:51.361Z,4.93
2023-05-19T05:04:01.115Z,6.00
2023-05-19T05:05:04.387Z,5.05
2023-05-19T05:06:07.660Z,4.20
2023-05-19T05:07:11.013Z,3.88
2023-05-19T05:08:16.466Z,6.88
2023-05-19T05:09:34.581Z,3.90
2023-05-19T05:10:44.740Z,7.15
2023-05-19T05:11:48.718Z,5.38
2023-05-19T05:12:54.576Z,6.45
2023-05-19T05:14:01.428Z,5.10
2023-05-19T05:15:07.276Z,5.60
2023-05-19T05:16:10.991Z,3.83
2023-05-19T05:20:48.558Z,5.65
2023-05-19T05:21:52.230Z,3.33
2023-05-19T05:23:08.733Z,3.65
2023-05-19T05:26:42.326Z,5.32
2023-05-19T05:29:15.053Z,3.28
2023-05-19T05:30:17.559Z,3.65
2023-05-19T05:31:21.540Z,3.05
2023-05-19T05:32:27.159Z,3.50
2023-05-19T05:33:30.826Z,4.43
2023-05-19T05:34:33.381Z,7.05
2023-05-19T05:35:36.463Z,3.08
2023-05-19T05:36:40.150Z,4.30
2023-05-19T05:38:14.875Z,3.42
2023-05-19T05:39:17.756Z,4.05
2023-05-19T05:40:24.045Z,5.25
2023-05-19T05:41:35.419Z,4.50
2023-05-19T05:42:44.495Z,6.70
2023-05-19T05:43:46.861Z,6.57
2023-05-19T05:44:49.479Z,4.90
2023-05-19T05:45:54.347Z,5.55
2023-05-19T05:46:57.246Z,3.58
2023-05-19T05:48:24.018Z,5.32
2023-05-19T05:49:26.829Z,5.05
2023-05-19T05:50:30.702Z,6.35
2023-05-19T05:51:34.379Z,4.32
2023-05-19T05:52:46.943Z,5.78
2023-05-19T05:54:00.904Z,3.83
2023-05-19T05:55:21.235Z,5.50
2023-05-19T05:56:24.866Z,4.43
2023-05-19T05:57:45.694Z,3.38
2023-05-19T05:59:07.613Z,3.00
2023-05-19T06:00:15.766Z,6.25
2023-05-19T06:01:18.337Z,4.10
2023-05-19T06:02:21.118Z,4.70
2023-05-19T06:03:24.509Z,3.60
2023-05-19T06:04:28.100Z,4.55
2023-05-19T06:05:31.203Z,3.83
2023-05-19T06:06:38.816Z,3.95
2023-05-19T06:07:58.643Z,5.15
2023-05-19T06:09:19.949Z,3.35
2023-05-19T06:10:26.421Z,3.45
2023-05-19T06:11:30.621Z,4.13
2023-05-19T06:12:35.104Z,3.58
2023-05-19T06:17:30.903Z,3.30
2023-05-19T06:18:33.885Z,4.25
2023-05-19T06:19:36.726Z,3.53
2023-05-19T06:20:39.549Z,6.78
2023-05-19T06:21:43.498Z,3.65
2023-05-19T06:24:04.383Z,4.55
2023-05-19T06:25:09.151Z,4.43
2023-05-19T06:26:11.654Z,3.97
2023-05-19T06:27:14.142Z,5.57
2023-05-19T06:28:16.707Z,3.55
2023-05-19T06:29:19.395Z,4.38
2023-05-19T06:30:23.876Z,4.20
2023-05-19T06:31:40.083Z,3.33
2023-05-19T06:32:47.962Z,3.35
2023-05-19T06:33:50.640Z,3.42
2023-05-19T06:34:56.435Z,3.35
2023-05-19T06:36:00.061Z,3.00
2023-05-19T06:37:02.722Z,3.90
2023-05-19T06:38:06.732Z,4.35
2023-05-19T06:39:09.152Z,4.15
2023-05-19T06:40:12.973Z,3.63
2023-05-19T06:41:17.220Z,3.90
2023-05-19T06:42:23.204Z,8.00
2023-05-19T06:43:43.583Z,3.33
2023-05-19T06:44:50.357Z,5.30
2023-05-19T06:46:58.819Z,3.33
2023-05-19T06:49:05.076Z,4.50
2023-05-19T06:50:12.558Z,3.63
2023-05-19T06:51:21.930Z,2.53
2023-05-19T06:52:28.925Z,3.20
2023-05-19T06:53:32.371Z,4.35
2023-05-19T06:54:34.831Z,3.45
2023-05-19T06:55:47.194Z,4.25
2023-05-19T06:57:01.373Z,3.17
2023-05-19T06:58:03.680Z,2.92
2023-05-19T06:59:06.497Z,6.00
2023-05-19T07:00:13.972Z,4.28
2023-05-19T07:01:21.801Z,4.30
2023-05-19T07:02:29.452Z,3.42
2023-05-19T07:03:32.808Z,3.25
2023-05-19T07:04:35.941Z,3.47
2023-05-19T07:05:38.439Z,3.30
2023-05-19T07:06:40.976Z,3.38
2023-05-19T07:07:44.882Z,4.65
2023-05-19T07:09:15.191Z,6.03
2023-05-19T07:10:24.423Z,4.78
2023-05-19T07:11:28.153Z,3.17
2023-05-19T07:12:31.056Z,3.03
2023-05-19T07:13:35.990Z,3.17
2023-05-19T07:14:41.690Z,4.55
2023-05-19T07:15:44.227Z,2.95
2023-05-19T07:16:46.821Z,5.25
2023-05-19T07:17:49.498Z,3.90
2023-05-19T07:18:52.128Z,3.08
2023-05-19T07:19:54.715Z,3.13
2023-05-19T07:20:57.882Z,3.05
2023-05-19T07:22:00.477Z,3.63
2023-05-19T07:23:52.221Z,4.45
2023-05-19T07:24:57.352Z,3.80
2023-05-19T07:25:59.734Z,3.25
2023-05-19T07:27:02.530Z,3.42
2023-05-19T07:28:05.288Z,3.08
2023-05-19T07:29:07.880Z,3.38
2023-05-19T07:30:11.382Z,3.55
2023-05-19T07:32:16.847Z,5.70
2023-05-19T07:33:19.333Z,5.00
2023-05-19T07:34:22.172Z,4.93
2023-05-19T07:35:25.012Z,3.72
2023-05-19T07:36:27.546Z,3.92
2023-05-19T07:37:30.252Z,5.18
2023-05-19T07:38:37.557Z,3.65
2023-05-19T07:39:40.072Z,3.45
2023-05-19T07:40:42.457Z,5.18
2023-05-19T07:41:44.992Z,3.38
2023-05-19T07:42:51.619Z,6.47
2023-05-19T07:43:55.166Z,4.97
2023-05-19T07:46:35.383Z,3.30
2023-05-19T07:47:38.271Z,3.67
2023-05-19T07:48:44.661Z,4.03
2023-05-19T07:49:51.089Z,4.05
2023-05-19T07:52:00.114Z,3.70
2023-05-19T07:53:03.680Z,4.53
2023-05-19T07:54:09.461Z,3.17
2023-05-19T07:55:37.118Z,4.15
2023-05-19T07:56:39.644Z,4.97
2023-05-19T07:57:43.287Z,4.35
2023-05-19T07:59:13.762Z,4.40
2023-05-19T08:00:20.852Z,3.85
2023-05-19T08:01:51.618Z,4.07
2023-05-19T08:03:03.431Z,5.18
2023-05-19T08:05:43.564Z,4.30
2023-05-19T08:06:49.051Z,7.50
2023-05-19T08:07:51.517Z,5.10
2023-05-19T08:09:09.957Z,5.28
2023-05-19T08:10:19.633Z,5.70
2023-05-19T08:13:57.546Z,3.78
2023-05-19T08:15:07.507Z,6.65
2023-05-19T08:16:17.318Z,3.50
2023-05-19T08:17:20.487Z,5.75
2023-05-19T08:19:11.680Z,5.13
2023-05-19T08:23:49.222Z,6.32
2023-05-19T08:24:51.986Z,3.53
2023-05-19T08:25:55.785Z,4.85
2023-05-19T08:27:06.882Z,5.43
2023-05-19T08:38:39.014Z,4.90
2023-05-19T08:39:45.213Z,4.75
2023-05-19T08:42:39.278Z,5.95
2023-05-19T08:43:41.785Z,6.45
2023-05-19T08:44:44.293Z,3.88
2023-05-19T08:45:48.588Z,4.68
2023-05-19T08:46:53.441Z,3.80
2023-05-19T08:47:56.466Z,6.05
2023-05-19T08:49:29.556Z,4.35
2023-05-19T08:50:37.353Z,5.80
2023-05-19T08:51:47.408Z,5.25
2023-05-19T09:00:54.228Z,3.92
2023-05-19T09:01:56.744Z,5.57
2023-05-19T09:03:16.929Z,3.50
2023-05-19T09:04:21.008Z,7.57
2023-05-19T09:05:24.039Z,4.78
2023-05-19T09:06:26.931Z,4.15
2023-05-19T09:07:29.797Z,4.38
2023-05-19T09:08:32.156Z,5.30
2023-05-19T09:09:34.716Z,4.47
2023-05-19T09:10:37.227Z,8.45
2023-05-19T09:11:39.788Z,5.47
2023-05-19T09:12:47.358Z,4.10
2023-05-19T09:13:49.990Z,3.28
2023-05-19T09:14:53.186Z,4.88
2023-05-19T09:15:57.323Z,3.88
2023-05-19T09:16:59.924Z,3.58
2023-05-19T09:18:12.536Z,4.10
2023-05-19T09:19:17.755Z,4.30
2023-05-19T09:20:20.212Z,6.50
2023-05-19T09:21:32.309Z,6.00
2023-05-19T09:22:36.656Z,3.78
2023-05-19T09:23:39.444Z,5.00
2023-05-19T09:24:42.398Z,3.95
2023-05-19T09:25:50.414Z,5.75
2023-05-19T09:26:57.638Z,6.30
2023-05-19T09:28:00.812Z,4.75
2023-05-19T09:29:03.501Z,6.18
2023-05-19T09:30:09.493Z,5.53
2023-05-19T09:31:12.311Z,4.50
2023-05-19T09:32:25.229Z,8.57
2023-05-19T09:33:28.762Z,6.65
2023-05-19T09:34:31.429Z,5.25
2023-05-19T09:35:35.303Z,8.60
2023-05-19T09:36:40.473Z,4.53
2023-05-19T09:37:43.637Z,3.97
2023-05-19T09:38:46.128Z,5.57
2023-05-19T09:39:52.231Z,4.13
2023-05-19T09:40:59.994Z,4.50
2023-05-19T09:42:05.262Z,5.28
2023-05-19T09:43:11.769Z,5.82
2023-05-19T09:44:29.737Z,6.93
2023-05-19T09:45:32.845Z,6.53
2023-05-19T09:46:36.800Z,5.38
2023-05-19T09:48:42.817Z,4.60
2023-05-19T09:49:47.940Z,5.18
2023-05-19T09:50:51.898Z,7.38
2023-05-19T09:51:58.459Z,5.78
2023-05-19T09:53:02.188Z,5.60
2023-05-19T09:54:05.238Z,5.60
2023-05-19T09:55:11.186Z,6.15
2023-05-19T09:56:21.505Z,4.75
2023-05-19T09:57:29.784Z,6.97
2023-05-19T09:58:35.662Z,4.97
2023-05-19T09:59:40.704Z,5.38
2023-05-19T10:00:54.321Z,4.78
2023-05-19T10:01:58.378Z,5.57
2023-05-19T10:03:02.283Z,7.70
2023-05-19T10:04:06.115Z,4.90
2023-05-19T10:06:11.888Z,7.88
2023-05-19T10:07:15.406Z,7.47
2023-05-19T10:08:18.243Z,4.82
2023-05-19T10:09:25.874Z,6.43
2023-05-19T10:10:29.111Z,4.85
2023-05-19T10:11:32.506Z,5.82
2023-05-19T10:12:35.113Z,5.28
2023-05-19T10:13:41.570Z,7.57
2023-05-19T10:14:44.102Z,4.65
2023-05-19T10:15:58.263Z,5.53
2023-05-19T10:17:01.914Z,6.22
2023-05-19T10:18:05.286Z,6.35
2023-05-19T10:19:09.566Z,7.10
2023-05-19T10:20:14.319Z,4.38
2023-05-19T10:21:45.903Z,5.28
2023-05-19T10:22:49.058Z,4.00
2023-05-19T10:23:52.029Z,6.80
2023-05-19T10:24:56.197Z,5.93
2023-05-19T10:26:01.837Z,4.20
2023-05-19T10:27:09.574Z,5.45
2023-05-19T10:28:15.361Z,4.88
2023-05-19T10:29:31.701Z,9.43
2023-05-19T10:30:43.931Z,9.18
2023-05-19T10:31:48.228Z,7.60
2023-05-19T10:32:52.278Z,11.15
2023-05-19T10:34:28.607Z,7.22
2023-05-19T10:35:40.258Z,5.93
2023-05-19T10:36:49.087Z,7.28
2023-05-19T10:38:12.313Z,5.00
2023-05-19T10:39:20.376Z,9.07
2023-05-19T10:40:26.115Z,7.60
2023-05-19T10:41:57.926Z,5.90
2023-05-19T10:43:01.155Z,5.13
2023-05-19T10:45:23.258Z,5.75
2023-05-19T10:46:29.691Z,5.18
2023-05-19T10:47:36.299Z,6.53
2023-05-19T10:48:38.735Z,7.10
2023-05-19T10:49:41.400Z,6.25
2023-05-19T10:50:46.257Z,5.90
2023-05-19T10:51:49.193Z,6.80
2023-05-19T10:52:56.423Z,9.63
2023-05-19T10:54:11.010Z,5.70
2023-05-19T10:55:50.042Z,5.95
2023-05-19T10:56:57.312Z,8.05
2023-05-19T10:58:00.682Z,6.50
2023-05-19T10:59:03.889Z,6.25
2023-05-19T11:00:31.318Z,9.60
2023-05-19T11:01:38.567Z,5.40
2023-05-19T11:02:43.102Z,5.00
2023-05-19T11:03:55.009Z,5.57
2023-05-19T11:05:09.483Z,6.85
2023-05-19T11:06:32.684Z,6.47
2023-05-19T11:07:35.534Z,6.15
2023-05-19T11:08:38.626Z,6.28
2023-05-19T11:09:41.435Z,7.25
2023-05-19T11:10:46.649Z,7.68
2023-05-19T11:11:55.676Z,7.50
2023-05-19T11:12:58.470Z,6.05
2023-05-19T11:14:01.127Z,6.63
2023-05-19T11:15:03.730Z,6.80
2023-05-19T11:16:09.998Z,5.63
2023-05-19T11:17:16.420Z,5.68
2023-05-19T11:18:19.811Z,6.80
2023-05-19T11:19:29.066Z,6.53
2023-05-19T11:20:35.382Z,7.10
2023-05-19T11:21:55.312Z,9.00
2023-05-19T11:23:08.876Z,6.45
2023-05-19T11:24:36.210Z,7.53
2023-05-19T11:25:42.423Z,5.68
2023-05-19T11:26:46.493Z,6.07
2023-05-19T11:27:49.049Z,7.55
2023-05-19T11:28:52.292Z,6.25
2023-05-19T11:29:56.306Z,7.45
2023-05-19T11:30:59.388Z,7.78
2023-05-19T11:32:02.217Z,5.32
2023-05-19T11:33:06.155Z,5.60
2023-05-19T11:34:09.475Z,7.20
2023-05-19T11:35:12.272Z,7.38
2023-05-19T11:36:19.651Z,6.82
2023-05-19T11:37:22.130Z,7.63
2023-05-19T11:38:24.682Z,8.95
2023-05-19T11:39:27.947Z,5.95
2023-05-19T11:40:31.128Z,5.40
2023-05-19T11:41:33.571Z,7.80
2023-05-19T11:42:37.314Z,7.22
2023-05-19T11:44:43.069Z,5.25
2023-05-19T11:45:46.243Z,9.00
2023-05-19T11:46:48.938Z,4.93
2023-05-19T11:48:02.009Z,6.65
2023-05-19T11:49:05.930Z,6.95
2023-05-19T11:50:08.958Z,6.75
2023-05-19T11:51:11.573Z,8.15
2023-05-19T11:52:14.170Z,6.13
2023-05-19T11:53:17.264Z,7.15
2023-05-19T11:54:19.768Z,7.22
2023-05-19T11:55:22.862Z,6.97
2023-05-19T11:56:25.422Z,8.85
2023-05-19T11:57:28.042Z,6.60
2023-05-19T11:58:30.985Z,5.75
2023-05-19T11:59:36.476Z,6.45
2023-05-19T12:00:40.941Z,5.70
2023-05-19T12:01:43.694Z,6.72
2023-05-19T12:02:46.441Z,7.57
2023-05-19T12:03:49.986Z,8.05
2023-05-19T12:04:52.760Z,6.60
2023-05-19T12:05:55.348Z,5.78
2023-05-19T12:06:57.967Z,9.48
2023-05-19T12:08:01.475Z,5.68
2023-05-19T12:09:05.766Z,7.57
2023-05-19T12:10:09.201Z,6.57
2023-05-19T12:11:11.799Z,8.73
2023-05-19T12:12:19.727Z,7.22
2023-05-19T12:13:23.078Z,7.13
2023-05-19T12:14:27.553Z,6.70
2023-05-19T12:15:32.035Z,8.45
2023-05-19T12:16:35.612Z,6.30
2023-05-19T12:17:38.139Z,8.52
2023-05-19T12:18:40.733Z,6.53
2023-05-19T12:19:47.643Z,6.68
2023-05-19T12:20:50.331Z,7.35
2023-05-19T12:21:53.393Z,7.82
2023-05-19T12:22:56.596Z,7.93
2023-05-19T12:24:00.002Z,6.65
2023-05-19T12:25:03.033Z,8.13
2023-05-19T12:26:06.315Z,6.93
2023-05-19T12:27:26.436Z,8.95
2023-05-19T12:28:31.899Z,9.00
2023-05-19T12:29:35.212Z,8.30
2023-05-19T12:30:38.088Z,9.07
2023-05-19T12:31:40.884Z,7.75
2023-05-19T12:32:44.183Z,6.38
2023-05-19T12:33:52.172Z,9.30
2023-05-19T12:35:02.352Z,6.15
2023-05-19T12:36:24.393Z,10.13
2023-05-19T12:37:37.319Z,6.85
2023-05-19T12:38:40.052Z,9.25
2023-05-19T12:39:43.061Z,7.63
2023-05-19T12:40:45.932Z,6.63
2023-05-19T12:41:48.393Z,8.23
2023-05-19T12:42:57.410Z,7.10
2023-05-19T12:43:59.822Z,6.70
2023-05-19T12:45:05.575Z,6.90
2023-05-19T12:46:12.325Z,7.22
2023-05-19T12:47:16.033Z,7.35
2023-05-19T12:48:18.965Z,6.57
2023-05-19T12:49:21.827Z,6.13
2023-05-19T12:50:31.393Z,9.35
2023-05-19T12:51:40.707Z,7.78
2023-05-19T12:52:59.888Z,7.07
2023-05-19T12:54:13.874Z,7.80
2023-05-19T12:55:16.902Z,6.50
2023-05-19T12:56:19.315Z,9.50
2023-05-19T12:57:21.828Z,7.43
2023-05-19T12:58:24.932Z,7.75
2023-05-19T12:59:38.826Z,11.50
2023-05-19T13:00:50.056Z,6.88
2023-05-19T13:01:59.483Z,6.47
2023-05-19T13:03:06.095Z,7.68
2023-05-19T13:04:09.152Z,7.80
2023-05-19T13:05:11.711Z,7.07
2023-05-19T13:06:14.409Z,9.52
2023-05-19T13:07:17.009Z,7.35
2023-05-19T13:08:21.720Z,9.20
2023-05-19T13:09:31.683Z,9.43
2023-05-19T13:10:35.979Z,7.95
2023-05-19T13:11:39.054Z,8.07
2023-05-19T13:12:44.480Z,7.43
2023-05-19T13:13:47.489Z,9.98
2023-05-19T13:15:21.110Z,9.77
2023-05-19T13:16:23.969Z,7.45
2023-05-19T13:17:29.277Z,7.88
2023-05-19T13:18:32.864Z,8.88
2023-05-19T13:19:37.972Z,9.75
2023-05-19T13:20:41.911Z,9.20
2023-05-19T13:21:47.699Z,7.55
2023-05-19T13:22:51.064Z,6.95
2023-05-19T13:23:53.686Z,8.20
2023-05-19T13:25:00.024Z,6.00
2023-05-19T13:26:05.702Z,9.20
2023-05-19T13:27:10.835Z,8.77
2023-05-19T13:28:13.615Z,8.60
2023-05-19T13:29:16.337Z,7.55
2023-05-19T13:30:19.549Z,9.43
2023-05-19T13:31:22.303Z,8.32
2023-05-19T13:32:25.310Z,7.57
2023-05-19T13:33:28.168Z,9.15
2023-05-19T13:34:31.046Z,7.95
2023-05-19T13:35:39.944Z,7.43
2023-05-19T13:36:47.442Z,11.07
2023-05-19T13:38:15.228Z,8.40
2023-05-19T13:39:17.960Z,7.75
2023-05-19T13:40:24.373Z,7.68
2023-05-19T13:44:36.702Z,7.57
2023-05-19T13:45:39.526Z,10.10
2023-05-19T13:46:47.431Z,8.50
2023-05-19T13:47:53.325Z,9.20
2023-05-19T13:49:20.429Z,7.40
2023-05-19T13:50:26.735Z,7.38
2023-05-19T13:51:29.180Z,11.20
2023-05-19T13:55:02.178Z,7.32
2023-05-19T13:56:39.621Z,8.63
2023-05-19T14:01:36.275Z,7.80
2023-05-19T14:03:00.694Z,8.30
2023-05-19T14:04:07.502Z,9.63
2023-05-19T14:05:10.885Z,11.05
2023-05-19T14:06:18.969Z,7.60
2023-05-19T14:08:51.636Z,8.68
2023-05-19T14:09:54.331Z,15.32
2023-05-19T14:10:57.440Z,8.40
2023-05-19T14:12:02.937Z,9.35
2023-05-19T14:13:29.551Z,7.32
2023-05-19T14:14:29.326Z,8.52
2023-05-19T14:17:03.457Z,7.55
2023-05-19T14:18:12.011Z,10.80
2023-05-19T14:19:14.933Z,10.27
2023-05-19T14:20:17.684Z,9.38
2023-05-19T14:23:23.195Z,7.18
2023-05-19T14:24:32.921Z,6.90
2023-05-19T14:25:35.705Z,10.57
2023-05-19T14:26:39.655Z,8.75
2023-05-19T14:27:52.149Z,7.05
2023-05-19T14:29:20.100Z,9.65
2023-05-19T14:30:23.088Z,9.02
2023-05-19T14:31:26.302Z,7.47
2023-05-19T14:32:30.574Z,9.57
2023-05-19T14:33:35.671Z,8.70
2023-05-19T14:34:43.632Z,8.15
2023-05-19T14:36:11.499Z,7.50
2023-05-19T14:37:48.122Z,8.18
2023-05-19T14:38:50.428Z,10.05
2023-05-19T14:39:58.112Z,11.60
2023-05-19T14:41:11.298Z,6.90
2023-05-19T14:42:14.326Z,8.00
2023-05-19T14:43:17.335Z,8.85
2023-05-19T14:44:38.577Z,9.20
2023-05-19T14:45:42.295Z,9.25
2023-05-19T14:48:06.900Z,9.50
2023-05-19T14:49:10.493Z,8.98
2023-05-19T14:50:29.227Z,7.13
2023-05-19T14:51:43.419Z,11.25
2023-05-19T14:52:46.180Z,12.65
2023-05-19T14:53:58.918Z,6.43
2023-05-19T14:55:01.322Z,7.90
2023-05-19T14:56:29.279Z,11.00
2023-05-19T14:57:32.574Z,6.97
2023-05-19T14:58:35.249Z,11.95
2023-05-19T14:59:38.418Z,8.43
2023-05-19T15:01:11.888Z,8.68
2023-05-19T15:02:22.785Z,7.70
2023-05-19T15:03:37.145Z,7.55
2023-05-19T15:04:39.747Z,10.43
2023-05-19T15:05:42.239Z,10.40
2023-05-19T15:06:58.230Z,7.05
2023-05-19T15:08:15.668Z,7.82
2023-05-19T15:09:18.187Z,9.55
2023-05-19T15:12:38.857Z,10.32
2023-05-19T15:13:42.893Z,9.55
2023-05-19T15:14:55.409Z,8.30
2023-05-19T15:16:16.340Z,12.65
2023-05-19T15:17:28.015Z,12.15
2023-05-19T15:18:57.165Z,9.70
2023-05-19T15:20:16.140Z,11.23
2023-05-19T15:23:27.168Z,9.75
2023-05-19T15:24:40.860Z,7.43
2023-05-19T15:27:05.598Z,9.52
2023-05-19T15:28:18.859Z,10.93
2023-05-19T15:30:51.727Z,10.55
2023-05-19T15:32:03.876Z,10.15
2023-05-19T15:33:13.402Z,9.05
2023-05-19T15:34:18.016Z,7.28
2023-05-19T15:35:20.341Z,6.40
2023-05-19T15:36:22.677Z,7.20
2023-05-19T15:37:32.550Z,7.90
2023-05-19T15:38:37.042Z,14.80
2023-05-19T15:39:48.113Z,6.63
2023-05-19T15:40:59.240Z,7.68
2023-05-19T15:42:01.706Z,8.70
2023-05-19T15:43:13.472Z,12.00
2023-05-19T15:44:31.563Z,13.75
2023-05-19T15:45:47.097Z,8.95
2023-05-19T15:46:50.008Z,12.55
2023-05-19T15:47:56.068Z,10.68
2023-05-19T15:48:58.891Z,7.78
2023-05-19T15:50:05.476Z,11.15
2023-05-19T15:51:08.956Z,10.05
2023-05-19T15:52:14.797Z,7.28
2023-05-19T15:53:19.766Z,9.85
2023-05-19T15:54:22.618Z,9.25
2023-05-19T15:55:53.698Z,9.82
2023-05-19T15:57:01.140Z,7.30
2023-05-19T15:58:16.177Z,9.18
2023-05-19T15:59:26.314Z,9.00
2023-05-19T16:00:28.624Z,9.45
2023-05-19T16:01:31.131Z,7.85
2023-05-19T16:02:41.079Z,7.32
2023-05-19T16:03:44.746Z,8.52
2023-05-19T16:04:48.057Z,8.73
2023-05-19T16:05:50.537Z,7.32
2023-05-19T16:06:58.834Z,10.20
2023-05-19T16:08:22.699Z,8.80
2023-05-19T16:09:25.132Z,13.15
2023-05-19T16:10:27.489Z,9.30
2023-05-19T16:11:35.511Z,8.40
2023-05-19T16:12:38.447Z,8.25